sensor_id;sensor_type;location;lat;lon;timestamp;P1;durP1;ratioP1;P2;durP2;ratioP2
41719;SDS011;27405;53.316;-6.294;2024-01-30T00:01:16;21.65;;;4.80;;
41719;SDS011;27405;53.316;-6.294;2024-01-30T00:03:42;27.23;;;4.97;;
41719;SDS011;27405;53.316;-6.294;2024-01-30T00:06:08;17.70;;;4.75;;
41719;SDS011;27405;53.316;-6.294;2024-01-30T00:08:34;20.55;;;4.25;;
41719;SDS011;27405;53.316;-6.294;2024-01-30T00:11:00;32.40;;;5.60;;
41719;SDS011;27405;53.316;-6.294;2024-01-30T00:13:26;22.45;;;4.95;;
41719;SDS011;27405;53.316;-6.294;2024-01-30T00:15:52;22.95;;;5.15;;
41719;SDS011;27405;53.316;-6.294;2024-01-30T00:18:17;26.70;;;4.70;;
41719;SDS011;27405;53.316;-6.294;2024-01-30T00:20:43;27.83;;;5.15;;
41719;SDS011;27405;53.316;-6.294;2024-01-30T00:23:09;24.67;;;4.60;;
41719;SDS011;27405;53.316;-6.294;2024-01-30T00:25:35;22.52;;;5.00;;
41719;SDS011;27405;53.316;-6.294;2024-01-30T00:28:00;24.77;;;4.90;;
41719;SDS011;27405;53.316;-6.294;2024-01-30T00:30:26;23.58;;;4.70;;
41719;SDS011;27405;53.316;-6.294;2024-01-30T00:32:53;24.42;;;5.40;;
41719;SDS011;27405;53.316;-6.294;2024-01-30T00:35:18;21.50;;;4.97;;
41719;SDS011;27405;53.316;-6.294;2024-01-30T00:37:44;27.73;;;5.63;;
41719;SDS011;27405;53.316;-6.294;2024-01-30T00:40:10;27.80;;;5.78;;
41719;SDS011;27405;53.316;-6.294;2024-01-30T00:42:41;22.23;;;6.18;;
41719;SDS011;27405;53.316;-6.294;2024-01-30T00:45:11;27.45;;;5.57;;
41719;SDS011;27405;53.316;-6.294;2024-01-30T00:47:38;27.35;;;6.00;;
41719;SDS011;27405;53.316;-6.294;2024-01-30T00:50:03;26.40;;;5.90;;
41719;SDS011;27405;53.316;-6.294;2024-01-30T00:52:30;22.17;;;5.25;;
41719;SDS011;27405;53.316;-6.294;2024-01-30T00:54:55;33.95;;;6.82;;
41719;SDS011;27405;53.316;-6.294;2024-01-30T00:57:21;26.92;;;6.13;;
41719;SDS011;27405;53.316;-6.294;2024-01-30T00:59:47;21.33;;;5.18;;
41719;SDS011;27405;53.316;-6.294;2024-01-30T01:02:12;25.17;;;5.10;;
41719;SDS011;27405;53.316;-6.294;2024-01-30T01:04:40;23.73;;;5.20;;
41719;SDS011;27405;53.316;-6.294;2024-01-30T01:07:05;24.13;;;5.25;;
41719;SDS011;27405;53.316;-6.294;2024-01-30T01:09:31;23.23;;;5.65;;
41719;SDS011;27405;53.316;-6.294;2024-01-30T01:11:57;23.17;;;5.65;;
41719;SDS011;27405;53.316;-6.294;2024-01-30T01:14:22;20.60;;;4.95;;
41719;SDS011;27405;53.316;-6.294;2024-01-30T01:16:48;26.40;;;6.22;;
41719;SDS011;27405;53.316;-6.294;2024-01-30T01:19:14;20.23;;;5.10;;
41719;SDS011;27405;53.316;-6.294;2024-01-30T01:21:39;29.10;;;6.20;;
41719;SDS011;27405;53.316;-6.294;2024-01-30T01:24:05;25.23;;;6.75;;
41719;SDS011;27405;53.316;-6.294;2024-01-30T01:26:31;24.10;;;7.00;;
41719;SDS011;27405;53.316;-6.294;2024-01-30T01:28:56;26.13;;;6.65;;
41719;SDS011;27405;53.316;-6.294;2024-01-30T01:31:22;19.60;;;5.65;;
41719;SDS011;27405;53.316;-6.294;2024-01-30T01:33:49;23.55;;;5.50;;
41719;SDS011;27405;53.316;-6.294;2024-01-30T01:36:15;17.30;;;5.57;;
41719;SDS011;27405;53.316;-6.294;2024-01-30T01:38:41;24.08;;;5.80;;
41719;SDS011;27405;53.316;-6.294;2024-01-30T01:41:06;19.60;;;5.53;;
41719;SDS011;27405;53.316;-6.294;2024-01-30T01:43:32;19.67;;;5.22;;
41719;SDS011;27405;53.316;-6.294;2024-01-30T01:45:58;19.48;;;4.93;;
41719;SDS011;27405;53.316;-6.294;2024-01-30T01:48:23;25.25;;;5.80;;
41719;SDS011;27405;53.316;-6.294;2024-01-30T01:50:49;24.30;;;5.60;;
41719;SDS011;27405;53.316;-6.294;2024-01-30T01:53:16;19.42;;;5.93;;
41719;SDS011;27405;53.316;-6.294;2024-01-30T01:55:42;22.45;;;6.07;;
41719;SDS011;27405;53.316;-6.294;2024-01-30T01:58:08;21.00;;;6.10;;
41719;SDS011;27405;53.316;-6.294;2024-01-30T02:00:35;25.20;;;6.53;;
41719;SDS011;27405;53.316;-6.294;2024-01-30T02:03:04;27.20;;;5.63;;
41719;SDS011;27405;53.316;-6.294;2024-01-30T02:05:31;24.08;;;5.07;;
41719;SDS011;27405;53.316;-6.294;2024-01-30T02:07:57;24.10;;;5.20;;
41719;SDS011;27405;53.316;-6.294;2024-01-30T02:10:23;20.70;;;4.55;;
41719;SDS011;27405;53.316;-6.294;2024-01-30T02:12:49;21.92;;;4.53;;
41719;SDS011;27405;53.316;-6.294;2024-01-30T02:15:15;20.98;;;4.15;;
41719;SDS011;27405;53.316;-6.294;2024-01-30T02:17:40;19.17;;;4.15;;
41719;SDS011;27405;53.316;-6.294;2024-01-30T02:20:06;23.38;;;4.95;;
41719;SDS011;27405;53.316;-6.294;2024-01-30T02:22:32;17.48;;;4.80;;
41719;SDS011;27405;53.316;-6.294;2024-01-30T02:25:00;21.83;;;4.15;;
41719;SDS011;27405;53.316;-6.294;2024-01-30T02:27:26;17.23;;;4.00;;
41719;SDS011;27405;53.316;-6.294;2024-01-30T02:29:51;19.70;;;4.45;;
41719;SDS011;27405;53.316;-6.294;2024-01-30T02:32:17;22.15;;;5.35;;
41719;SDS011;27405;53.316;-6.294;2024-01-30T02:34:43;19.45;;;4.10;;
41719;SDS011;27405;53.316;-6.294;2024-01-30T02:37:08;17.20;;;3.83;;
41719;SDS011;27405;53.316;-6.294;2024-01-30T02:39:34;22.63;;;4.05;;
41719;SDS011;27405;53.316;-6.294;2024-01-30T02:41:59;23.77;;;4.53;;
41719;SDS011;27405;53.316;-6.294;2024-01-30T02:44:25;19.85;;;4.47;;
41719;SDS011;27405;53.316;-6.294;2024-01-30T02:46:51;19.13;;;4.07;;
41719;SDS011;27405;53.316;-6.294;2024-01-30T02:49:19;24.55;;;5.95;;
41719;SDS011;27405;53.316;-6.294;2024-01-30T02:51:44;21.88;;;6.25;;
41719;SDS011;27405;53.316;-6.294;2024-01-30T02:54:10;21.48;;;5.55;;
41719;SDS011;27405;53.316;-6.294;2024-01-30T02:56:36;21.63;;;4.85;;
41719;SDS011;27405;53.316;-6.294;2024-01-30T02:59:01;20.17;;;4.13;;
41719;SDS011;27405;53.316;-6.294;2024-01-30T03:01:27;15.50;;;3.63;;
41719;SDS011;27405;53.316;-6.294;2024-01-30T03:03:53;16.83;;;3.47;;
41719;SDS011;27405;53.316;-6.294;2024-01-30T03:06:18;13.95;;;3.30;;
41719;SDS011;27405;53.316;-6.294;2024-01-30T03:08:45;19.48;;;3.83;;
41719;SDS011;27405;53.316;-6.294;2024-01-30T03:11:10;14.05;;;3.72;;
41719;SDS011;27405;53.316;-6.294;2024-01-30T03:13:36;21.58;;;4.03;;
41719;SDS011;27405;53.316;-6.294;2024-01-30T03:16:02;16.38;;;4.03;;
41719;SDS011;27405;53.316;-6.294;2024-01-30T03:18:27;16.63;;;4.43;;
41719;SDS011;27405;53.316;-6.294;2024-01-30T03:20:53;18.15;;;4.50;;
41719;SDS011;27405;53.316;-6.294;2024-01-30T03:23:19;17.17;;;4.35;;
41719;SDS011;27405;53.316;-6.294;2024-01-30T03:25:45;23.85;;;4.38;;
41719;SDS011;27405;53.316;-6.294;2024-01-30T03:28:10;17.13;;;4.05;;
41719;SDS011;27405;53.316;-6.294;2024-01-30T03:30:36;19.52;;;3.65;;
41719;SDS011;27405;53.316;-6.294;2024-01-30T03:33:02;15.45;;;3.00;;
41719;SDS011;27405;53.316;-6.294;2024-01-30T03:35:27;18.38;;;3.47;;
41719;SDS011;27405;53.316;-6.294;2024-01-30T03:37:53;15.15;;;3.30;;
41719;SDS011;27405;53.316;-6.294;2024-01-30T03:40:19;18.75;;;3.13;;
41719;SDS011;27405;53.316;-6.294;2024-01-30T03:42:44;12.07;;;2.60;;
41719;SDS011;27405;53.316;-6.294;2024-01-30T03:45:10;18.00;;;3.03;;
41719;SDS011;27405;53.316;-6.294;2024-01-30T03:47:36;15.55;;;3.03;;
41719;SDS011;27405;53.316;-6.294;2024-01-30T03:50:01;16.85;;;3.92;;
41719;SDS011;27405;53.316;-6.294;2024-01-30T03:52:27;21.08;;;3.75;;
41719;SDS011;27405;53.316;-6.294;2024-01-30T03:54:53;16.58;;;3.22;;
41719;SDS011;27405;53.316;-6.294;2024-01-30T03:57:18;13.63;;;2.72;;
41719;SDS011;27405;53.316;-6.294;2024-01-30T03:59:44;15.60;;;2.67;;
41719;SDS011;27405;53.316;-6.294;2024-01-30T04:02:10;9.73;;;3.13;;
41719;SDS011;27405;53.316;-6.294;2024-01-30T04:04:36;19.63;;;3.83;;
41719;SDS011;27405;53.316;-6.294;2024-01-30T04:07:02;18.23;;;3.90;;
41719;SDS011;27405;53.316;-6.294;2024-01-30T04:09:28;21.45;;;3.20;;
41719;SDS011;27405;53.316;-6.294;2024-01-30T04:11:54;19.85;;;3.58;;
41719;SDS011;27405;53.316;-6.294;2024-01-30T04:14:19;18.33;;;4.10;;
41719;SDS011;27405;53.316;-6.294;2024-01-30T04:16:45;13.38;;;3.30;;
41719;SDS011;27405;53.316;-6.294;2024-01-30T04:19:11;17.02;;;3.67;;
41719;SDS011;27405;53.316;-6.294;2024-01-30T04:21:36;15.43;;;3.50;;
41719;SDS011;27405;53.316;-6.294;2024-01-30T04:24:02;12.23;;;2.63;;
41719;SDS011;27405;53.316;-6.294;2024-01-30T04:26:28;15.45;;;3.25;;
41719;SDS011;27405;53.316;-6.294;2024-01-30T04:28:53;18.73;;;3.72;;
41719;SDS011;27405;53.316;-6.294;2024-01-30T04:31:19;14.35;;;3.28;;
41719;SDS011;27405;53.316;-6.294;2024-01-30T04:33:45;16.13;;;2.97;;
41719;SDS011;27405;53.316;-6.294;2024-01-30T04:36:10;13.93;;;3.30;;
41719;SDS011;27405;53.316;-6.294;2024-01-30T04:38:37;14.52;;;3.33;;
41719;SDS011;27405;53.316;-6.294;2024-01-30T04:41:03;14.85;;;3.22;;
41719;SDS011;27405;53.316;-6.294;2024-01-30T04:43:30;12.18;;;3.13;;
41719;SDS011;27405;53.316;-6.294;2024-01-30T04:45:55;16.38;;;3.45;;
41719;SDS011;27405;53.316;-6.294;2024-01-30T04:48:21;15.27;;;3.20;;
41719;SDS011;27405;53.316;-6.294;2024-01-30T04:50:47;15.27;;;3.90;;
41719;SDS011;27405;53.316;-6.294;2024-01-30T04:53:12;16.65;;;3.95;;
41719;SDS011;27405;53.316;-6.294;2024-01-30T04:55:38;18.30;;;4.07;;
41719;SDS011;27405;53.316;-6.294;2024-01-30T04:58:04;11.02;;;3.22;;
41719;SDS011;27405;53.316;-6.294;2024-01-30T05:00:29;16.52;;;3.55;;
41719;SDS011;27405;53.316;-6.294;2024-01-30T05:02:55;15.10;;;3.55;;
41719;SDS011;27405;53.316;-6.294;2024-01-30T05:05:21;16.05;;;3.28;;
41719;SDS011;27405;53.316;-6.294;2024-01-30T05:07:47;14.85;;;3.10;;
41719;SDS011;27405;53.316;-6.294;2024-01-30T05:10:13;14.55;;;2.83;;
41719;SDS011;27405;53.316;-6.294;2024-01-30T05:12:39;13.60;;;2.58;;
41719;SDS011;27405;53.316;-6.294;2024-01-30T05:15:05;14.23;;;2.85;;
41719;SDS011;27405;53.316;-6.294;2024-01-30T05:17:31;12.82;;;2.90;;
41719;SDS011;27405;53.316;-6.294;2024-01-30T05:19:57;14.30;;;2.88;;
41719;SDS011;27405;53.316;-6.294;2024-01-30T05:22:22;14.02;;;3.60;;
41719;SDS011;27405;53.316;-6.294;2024-01-30T05:24:48;19.70;;;3.30;;
41719;SDS011;27405;53.316;-6.294;2024-01-30T05:27:14;15.82;;;2.80;;
41719;SDS011;27405;53.316;-6.294;2024-01-30T05:29:40;12.90;;;2.95;;
41719;SDS011;27405;53.316;-6.294;2024-01-30T05:34:35;15.85;;;3.10;;
41719;SDS011;27405;53.316;-6.294;2024-01-30T05:37:01;15.98;;;3.42;;
41719;SDS011;27405;53.316;-6.294;2024-01-30T05:39:27;14.02;;;3.15;;
41719;SDS011;27405;53.316;-6.294;2024-01-30T05:41:52;15.23;;;3.15;;
41719;SDS011;27405;53.316;-6.294;2024-01-30T05:44:18;24.35;;;3.50;;
41719;SDS011;27405;53.316;-6.294;2024-01-30T05:46:43;18.00;;;3.40;;
41719;SDS011;27405;53.316;-6.294;2024-01-30T05:49:09;18.77;;;3.67;;
41719;SDS011;27405;53.316;-6.294;2024-01-30T05:51:35;16.83;;;3.42;;
41719;SDS011;27405;53.316;-6.294;2024-01-30T05:54:00;21.67;;;3.38;;
41719;SDS011;27405;53.316;-6.294;2024-01-30T05:56:28;21.38;;;3.40;;
41719;SDS011;27405;53.316;-6.294;2024-01-30T05:58:54;18.08;;;3.28;;
41719;SDS011;27405;53.316;-6.294;2024-01-30T06:01:20;17.58;;;3.70;;
41719;SDS011;27405;53.316;-6.294;2024-01-30T06:03:45;18.10;;;3.20;;
41719;SDS011;27405;53.316;-6.294;2024-01-30T06:06:11;20.17;;;4.00;;
41719;SDS011;27405;53.316;-6.294;2024-01-30T06:08:38;15.65;;;3.40;;
41719;SDS011;27405;53.316;-6.294;2024-01-30T06:11:04;19.92;;;3.38;;
41719;SDS011;27405;53.316;-6.294;2024-01-30T06:13:29;15.82;;;3.55;;
41719;SDS011;27405;53.316;-6.294;2024-01-30T06:15:57;18.13;;;3.85;;
41719;SDS011;27405;53.316;-6.294;2024-01-30T06:18:22;16.02;;;3.20;;
41719;SDS011;27405;53.316;-6.294;2024-01-30T06:20:48;22.92;;;4.43;;
41719;SDS011;27405;53.316;-6.294;2024-01-30T06:23:14;21.50;;;4.20;;
41719;SDS011;27405;53.316;-6.294;2024-01-30T06:25:40;15.88;;;4.15;;
41719;SDS011;27405;53.316;-6.294;2024-01-30T06:28:05;21.67;;;4.97;;
41719;SDS011;27405;53.316;-6.294;2024-01-30T06:30:31;17.13;;;4.47;;
41719;SDS011;27405;53.316;-6.294;2024-01-30T06:32:57;16.45;;;4.45;;
41719;SDS011;27405;53.316;-6.294;2024-01-30T06:35:22;16.25;;;4.35;;
41719;SDS011;27405;53.316;-6.294;2024-01-30T06:37:48;18.92;;;4.25;;
41719;SDS011;27405;53.316;-6.294;2024-01-30T06:40:14;16.08;;;4.00;;
41719;SDS011;27405;53.316;-6.294;2024-01-30T06:42:39;18.75;;;4.20;;
41719;SDS011;27405;53.316;-6.294;2024-01-30T06:45:05;20.92;;;3.75;;
41719;SDS011;27405;53.316;-6.294;2024-01-30T06:47:31;17.30;;;3.60;;
41719;SDS011;27405;53.316;-6.294;2024-01-30T06:49:57;19.33;;;3.30;;
41719;SDS011;27405;53.316;-6.294;2024-01-30T06:52:22;14.73;;;3.25;;
41719;SDS011;27405;53.316;-6.294;2024-01-30T06:54:48;17.45;;;3.47;;
41719;SDS011;27405;53.316;-6.294;2024-01-30T06:57:14;15.55;;;2.80;;
41719;SDS011;27405;53.316;-6.294;2024-01-30T06:59:39;18.65;;;3.67;;
41719;SDS011;27405;53.316;-6.294;2024-01-30T07:02:08;17.48;;;3.40;;
41719;SDS011;27405;53.316;-6.294;2024-01-30T07:04:35;21.75;;;4.40;;
41719;SDS011;27405;53.316;-6.294;2024-01-30T07:07:02;16.90;;;3.40;;
41719;SDS011;27405;53.316;-6.294;2024-01-30T07:09:30;17.60;;;3.67;;
41719;SDS011;27405;53.316;-6.294;2024-01-30T07:11:55;20.48;;;3.22;;
41719;SDS011;27405;53.316;-6.294;2024-01-30T07:14:23;21.52;;;3.35;;
41719;SDS011;27405;53.316;-6.294;2024-01-30T07:16:49;17.40;;;3.50;;
41719;SDS011;27405;53.316;-6.294;2024-01-30T07:19:15;16.77;;;3.60;;
41719;SDS011;27405;53.316;-6.294;2024-01-30T07:21:41;16.88;;;3.28;;
41719;SDS011;27405;53.316;-6.294;2024-01-30T07:24:07;16.15;;;3.10;;
41719;SDS011;27405;53.316;-6.294;2024-01-30T07:26:33;19.13;;;3.55;;
41719;SDS011;27405;53.316;-6.294;2024-01-30T07:29:00;15.32;;;3.53;;
41719;SDS011;27405;53.316;-6.294;2024-01-30T07:31:26;15.38;;;3.30;;
41719;SDS011;27405;53.316;-6.294;2024-01-30T07:33:52;20.40;;;3.25;;
41719;SDS011;27405;53.316;-6.294;2024-01-30T07:36:18;15.23;;;3.20;;
41719;SDS011;27405;53.316;-6.294;2024-01-30T07:38:44;24.52;;;3.53;;
41719;SDS011;27405;53.316;-6.294;2024-01-30T07:41:09;19.15;;;4.43;;
41719;SDS011;27405;53.316;-6.294;2024-01-30T07:43:35;13.05;;;3.00;;
41719;SDS011;27405;53.316;-6.294;2024-01-30T07:46:01;18.55;;;3.58;;
41719;SDS011;27405;53.316;-6.294;2024-01-30T07:48:27;22.05;;;4.47;;
41719;SDS011;27405;53.316;-6.294;2024-01-30T07:50:53;14.40;;;3.45;;
41719;SDS011;27405;53.316;-6.294;2024-01-30T07:53:19;22.02;;;4.60;;
41719;SDS011;27405;53.316;-6.294;2024-01-30T07:55:45;14.15;;;3.53;;
41719;SDS011;27405;53.316;-6.294;2024-01-30T07:58:11;17.13;;;3.40;;
41719;SDS011;27405;53.316;-6.294;2024-01-30T08:00:37;16.90;;;3.60;;
41719;SDS011;27405;53.316;-6.294;2024-01-30T08:03:04;21.73;;;3.53;;
41719;SDS011;27405;53.316;-6.294;2024-01-30T08:05:30;16.25;;;3.78;;
41719;SDS011;27405;53.316;-6.294;2024-01-30T08:07:56;19.88;;;3.95;;
41719;SDS011;27405;53.316;-6.294;2024-01-30T08:10:21;14.73;;;3.33;;
41719;SDS011;27405;53.316;-6.294;2024-01-30T08:12:47;21.50;;;4.57;;
41719;SDS011;27405;53.316;-6.294;2024-01-30T08:15:13;17.65;;;4.18;;
41719;SDS011;27405;53.316;-6.294;2024-01-30T08:17:39;18.60;;;4.05;;
41719;SDS011;27405;53.316;-6.294;2024-01-30T08:20:05;16.30;;;3.90;;
41719;SDS011;27405;53.316;-6.294;2024-01-30T08:22:32;19.52;;;3.95;;
41719;SDS011;27405;53.316;-6.294;2024-01-30T08:24:57;18.50;;;3.70;;
41719;SDS011;27405;53.316;-6.294;2024-01-30T08:27:23;14.55;;;3.30;;
41719;SDS011;27405;53.316;-6.294;2024-01-30T08:29:49;18.15;;;3.50;;
41719;SDS011;27405;53.316;-6.294;2024-01-30T08:32:15;14.82;;;4.32;;
41719;SDS011;27405;53.316;-6.294;2024-01-30T08:34:41;16.65;;;4.05;;
41719;SDS011;27405;53.316;-6.294;2024-01-30T08:37:07;20.98;;;3.78;;
41719;SDS011;27405;53.316;-6.294;2024-01-30T08:39:32;17.58;;;4.10;;
41719;SDS011;27405;53.316;-6.294;2024-01-30T08:41:58;18.73;;;4.05;;
41719;SDS011;27405;53.316;-6.294;2024-01-30T08:44:23;22.67;;;4.15;;
41719;SDS011;27405;53.316;-6.294;2024-01-30T08:46:49;16.65;;;4.32;;
41719;SDS011;27405;53.316;-6.294;2024-01-30T08:49:19;19.23;;;4.68;;
41719;SDS011;27405;53.316;-6.294;2024-01-30T08:51:45;22.58;;;4.68;;
41719;SDS011;27405;53.316;-6.294;2024-01-30T08:54:11;19.90;;;3.78;;
41719;SDS011;27405;53.316;-6.294;2024-01-30T08:56:36;24.02;;;4.72;;
41719;SDS011;27405;53.316;-6.294;2024-01-30T08:59:02;20.83;;;4.43;;
41719;SDS011;27405;53.316;-6.294;2024-01-30T09:01:27;24.27;;;4.38;;
41719;SDS011;27405;53.316;-6.294;2024-01-30T09:03:53;17.88;;;3.92;;
41719;SDS011;27405;53.316;-6.294;2024-01-30T09:06:19;17.08;;;3.95;;
41719;SDS011;27405;53.316;-6.294;2024-01-30T09:08:44;18.48;;;4.07;;
41719;SDS011;27405;53.316;-6.294;2024-01-30T09:11:13;17.13;;;3.50;;
41719;SDS011;27405;53.316;-6.294;2024-01-30T09:13:40;17.58;;;3.88;;
41719;SDS011;27405;53.316;-6.294;2024-01-30T09:16:06;14.75;;;3.58;;
41719;SDS011;27405;53.316;-6.294;2024-01-30T09:18:32;21.63;;;4.18;;
41719;SDS011;27405;53.316;-6.294;2024-01-30T09:20:58;23.48;;;4.32;;
41719;SDS011;27405;53.316;-6.294;2024-01-30T09:23:24;13.45;;;3.83;;
41719;SDS011;27405;53.316;-6.294;2024-01-30T09:25:52;14.55;;;3.53;;
41719;SDS011;27405;53.316;-6.294;2024-01-30T09:28:18;16.13;;;3.78;;
41719;SDS011;27405;53.316;-6.294;2024-01-30T09:30:44;16.13;;;3.50;;
41719;SDS011;27405;53.316;-6.294;2024-01-30T09:33:09;16.23;;;3.60;;
41719;SDS011;27405;53.316;-6.294;2024-01-30T09:35:38;18.42;;;3.80;;
41719;SDS011;27405;53.316;-6.294;2024-01-30T09:38:05;16.50;;;3.40;;
41719;SDS011;27405;53.316;-6.294;2024-01-30T09:40:31;18.98;;;4.05;;
41719;SDS011;27405;53.316;-6.294;2024-01-30T09:42:56;18.83;;;4.25;;
41719;SDS011;27405;53.316;-6.294;2024-01-30T09:45:26;18.17;;;4.57;;
41719;SDS011;27405;53.316;-6.294;2024-01-30T09:47:52;18.75;;;4.93;;
41719;SDS011;27405;53.316;-6.294;2024-01-30T09:50:19;20.40;;;4.32;;
41719;SDS011;27405;53.316;-6.294;2024-01-30T09:52:45;12.93;;;3.78;;
41719;SDS011;27405;53.316;-6.294;2024-01-30T09:55:12;16.15;;;3.47;;
41719;SDS011;27405;53.316;-6.294;2024-01-30T09:57:38;16.20;;;3.50;;
41719;SDS011;27405;53.316;-6.294;2024-01-30T10:00:04;16.17;;;3.55;;
41719;SDS011;27405;53.316;-6.294;2024-01-30T10:02:33;12.82;;;3.25;;
41719;SDS011;27405;53.316;-6.294;2024-01-30T10:04:59;17.45;;;3.83;;
41719;SDS011;27405;53.316;-6.294;2024-01-30T10:07:25;15.30;;;3.92;;
41719;SDS011;27405;53.316;-6.294;2024-01-30T10:09:52;17.63;;;4.07;;
41719;SDS011;27405;53.316;-6.294;2024-01-30T10:12:18;16.73;;;3.95;;
41719;SDS011;27405;53.316;-6.294;2024-01-30T10:14:44;12.95;;;3.60;;
41719;SDS011;27405;53.316;-6.294;2024-01-30T10:17:10;17.08;;;3.20;;
41719;SDS011;27405;53.316;-6.294;2024-01-30T10:19:37;14.43;;;3.65;;
41719;SDS011;27405;53.316;-6.294;2024-01-30T10:22:04;18.30;;;3.60;;
41719;SDS011;27405;53.316;-6.294;2024-01-30T10:24:30;17.48;;;3.60;;
41719;SDS011;27405;53.316;-6.294;2024-01-30T10:26:56;16.08;;;3.40;;
41719;SDS011;27405;53.316;-6.294;2024-01-30T10:29:22;11.90;;;2.80;;
41719;SDS011;27405;53.316;-6.294;2024-01-30T10:31:57;12.15;;;3.00;;
41719;SDS011;27405;53.316;-6.294;2024-01-30T10:34:24;18.85;;;3.38;;
41719;SDS011;27405;53.316;-6.294;2024-01-30T10:36:49;20.23;;;3.38;;
41719;SDS011;27405;53.316;-6.294;2024-01-30T10:39:20;12.10;;;2.83;;
41719;SDS011;27405;53.316;-6.294;2024-01-30T10:41:47;14.32;;;2.70;;
41719;SDS011;27405;53.316;-6.294;2024-01-30T10:44:15;20.40;;;3.63;;
41719;SDS011;27405;53.316;-6.294;2024-01-30T10:46:45;17.67;;;2.80;;
41719;SDS011;27405;53.316;-6.294;2024-01-30T10:49:17;12.35;;;3.13;;
41719;SDS011;27405;53.316;-6.294;2024-01-30T10:51:44;13.35;;;2.75;;
41719;SDS011;27405;53.316;-6.294;2024-01-30T10:54:11;15.02;;;2.55;;
41719;SDS011;27405;53.316;-6.294;2024-01-30T10:56:38;12.10;;;2.30;;
41719;SDS011;27405;53.316;-6.294;2024-01-30T10:59:06;17.90;;;4.03;;
41719;SDS011;27405;53.316;-6.294;2024-01-30T11:01:32;15.48;;;2.85;;
41719;SDS011;27405;53.316;-6.294;2024-01-30T11:03:57;17.75;;;2.88;;
41719;SDS011;27405;53.316;-6.294;2024-01-30T11:06:24;10.20;;;2.40;;
41719;SDS011;27405;53.316;-6.294;2024-01-30T11:09:00;13.30;;;2.30;;
41719;SDS011;27405;53.316;-6.294;2024-01-30T11:11:47;12.88;;;2.20;;
41719;SDS011;27405;53.316;-6.294;2024-01-30T11:14:15;12.38;;;2.13;;
41719;SDS011;27405;53.316;-6.294;2024-01-30T11:16:42;13.27;;;1.92;;
41719;SDS011;27405;53.316;-6.294;2024-01-30T11:19:11;13.60;;;2.35;;
41719;SDS011;27405;53.316;-6.294;2024-01-30T11:21:43;14.43;;;2.25;;
41719;SDS011;27405;53.316;-6.294;2024-01-30T11:24:09;14.55;;;2.30;;
41719;SDS011;27405;53.316;-6.294;2024-01-30T11:26:34;11.68;;;2.45;;
41719;SDS011;27405;53.316;-6.294;2024-01-30T11:29:03;11.00;;;2.42;;
41719;SDS011;27405;53.316;-6.294;2024-01-30T11:31:32;11.63;;;2.40;;
41719;SDS011;27405;53.316;-6.294;2024-01-30T11:33:57;10.85;;;2.10;;
41719;SDS011;27405;53.316;-6.294;2024-01-30T11:36:25;15.15;;;2.85;;
41719;SDS011;27405;53.316;-6.294;2024-01-30T11:38:51;8.75;;;2.15;;
41719;SDS011;27405;53.316;-6.294;2024-01-30T11:41:17;11.00;;;2.28;;
41719;SDS011;27405;53.316;-6.294;2024-01-30T11:43:43;12.60;;;2.95;;
41719;SDS011;27405;53.316;-6.294;2024-01-30T11:46:17;12.60;;;2.45;;
41719;SDS011;27405;53.316;-6.294;2024-01-30T11:48:42;10.55;;;2.60;;
41719;SDS011;27405;53.316;-6.294;2024-01-30T11:51:08;13.38;;;2.00;;
41719;SDS011;27405;53.316;-6.294;2024-01-30T11:53:34;9.82;;;2.47;;
41719;SDS011;27405;53.316;-6.294;2024-01-30T11:55:59;10.48;;;2.33;;
41719;SDS011;27405;53.316;-6.294;2024-01-30T11:58:25;12.95;;;2.28;;
41719;SDS011;27405;53.316;-6.294;2024-01-30T12:00:57;11.30;;;2.28;;
41719;SDS011;27405;53.316;-6.294;2024-01-30T12:03:23;14.27;;;3.25;;
41719;SDS011;27405;53.316;-6.294;2024-01-30T12:05:58;14.38;;;2.47;;
41719;SDS011;27405;53.316;-6.294;2024-01-30T12:08:24;9.32;;;2.35;;
41719;SDS011;27405;53.316;-6.294;2024-01-30T12:10:56;9.23;;;2.03;;
41719;SDS011;27405;53.316;-6.294;2024-01-30T12:13:30;13.40;;;2.50;;
41719;SDS011;27405;53.316;-6.294;2024-01-30T12:15:56;9.18;;;2.25;;
41719;SDS011;27405;53.316;-6.294;2024-01-30T12:18:21;11.98;;;2.45;;
41719;SDS011;27405;53.316;-6.294;2024-01-30T12:21:05;7.97;;;2.08;;
41719;SDS011;27405;53.316;-6.294;2024-01-30T12:23:32;9.05;;;2.03;;
41719;SDS011;27405;53.316;-6.294;2024-01-30T12:25:58;9.07;;;2.35;;
41719;SDS011;27405;53.316;-6.294;2024-01-30T12:28:26;8.50;;;1.88;;
41719;SDS011;27405;53.316;-6.294;2024-01-30T12:31:01;15.73;;;2.50;;
41719;SDS011;27405;53.316;-6.294;2024-01-30T12:33:28;9.10;;;1.92;;
41719;SDS011;27405;53.316;-6.294;2024-01-30T12:35:55;7.25;;;1.90;;
41719;SDS011;27405;53.316;-6.294;2024-01-30T12:38:21;16.58;;;2.40;;
41719;SDS011;27405;53.316;-6.294;2024-01-30T12:40:47;6.22;;;1.67;;
41719;SDS011;27405;53.316;-6.294;2024-01-30T12:43:15;8.13;;;1.75;;
41719;SDS011;27405;53.316;-6.294;2024-01-30T12:45:41;6.93;;;1.67;;
41719;SDS011;27405;53.316;-6.294;2024-01-30T12:48:08;9.80;;;1.85;;
41719;SDS011;27405;53.316;-6.294;2024-01-30T12:50:34;10.57;;;2.20;;
41719;SDS011;27405;53.316;-6.294;2024-01-30T12:52:59;7.85;;;2.03;;
41719;SDS011;27405;53.316;-6.294;2024-01-30T12:55:25;10.85;;;2.25;;
41719;SDS011;27405;53.316;-6.294;2024-01-30T12:57:53;9.10;;;1.90;;
41719;SDS011;27405;53.316;-6.294;2024-01-30T13:00:19;14.32;;;2.08;;
41719;SDS011;27405;53.316;-6.294;2024-01-30T13:02:45;9.88;;;1.92;;
41719;SDS011;27405;53.316;-6.294;2024-01-30T13:05:12;13.43;;;2.00;;
41719;SDS011;27405;53.316;-6.294;2024-01-30T13:07:38;10.32;;;1.65;;
41719;SDS011;27405;53.316;-6.294;2024-01-30T13:10:04;8.80;;;1.70;;
41719;SDS011;27405;53.316;-6.294;2024-01-30T13:12:30;9.93;;;1.67;;
41719;SDS011;27405;53.316;-6.294;2024-01-30T13:15:00;12.05;;;2.25;;
41719;SDS011;27405;53.316;-6.294;2024-01-30T13:17:27;14.55;;;2.72;;
41719;SDS011;27405;53.316;-6.294;2024-01-30T13:19:52;6.20;;;1.60;;
41719;SDS011;27405;53.316;-6.294;2024-01-30T13:22:19;7.95;;;2.00;;
41719;SDS011;27405;53.316;-6.294;2024-01-30T13:24:46;13.13;;;2.03;;
41719;SDS011;27405;53.316;-6.294;2024-01-30T13:27:13;13.30;;;1.95;;
41719;SDS011;27405;53.316;-6.294;2024-01-30T13:29:39;8.82;;;1.70;;
41719;SDS011;27405;53.316;-6.294;2024-01-30T13:32:04;13.35;;;2.17;;
41719;SDS011;27405;53.316;-6.294;2024-01-30T13:34:30;7.80;;;2.25;;
41719;SDS011;27405;53.316;-6.294;2024-01-30T13:36:56;7.90;;;2.00;;
41719;SDS011;27405;53.316;-6.294;2024-01-30T13:39:22;16.67;;;2.30;;
41719;SDS011;27405;53.316;-6.294;2024-01-30T13:41:48;10.48;;;2.03;;
41719;SDS011;27405;53.316;-6.294;2024-01-30T13:44:15;8.27;;;1.60;;
41719;SDS011;27405;53.316;-6.294;2024-01-30T13:46:46;8.88;;;2.13;;
41719;SDS011;27405;53.316;-6.294;2024-01-30T13:49:11;12.68;;;2.13;;
41719;SDS011;27405;53.316;-6.294;2024-01-30T13:51:37;10.73;;;1.98;;
41719;SDS011;27405;53.316;-6.294;2024-01-30T13:54:03;18.58;;;2.53;;
41719;SDS011;27405;53.316;-6.294;2024-01-30T13:56:29;15.55;;;2.10;;
41719;SDS011;27405;53.316;-6.294;2024-01-30T13:58:55;10.48;;;1.92;;
41719;SDS011;27405;53.316;-6.294;2024-01-30T14:01:21;12.32;;;2.03;;
41719;SDS011;27405;53.316;-6.294;2024-01-30T14:03:47;10.70;;;1.80;;
41719;SDS011;27405;53.316;-6.294;2024-01-30T14:06:14;16.25;;;1.88;;
41719;SDS011;27405;53.316;-6.294;2024-01-30T14:08:39;12.70;;;2.15;;
41719;SDS011;27405;53.316;-6.294;2024-01-30T14:11:05;13.27;;;1.90;;
41719;SDS011;27405;53.316;-6.294;2024-01-30T14:13:31;7.95;;;2.10;;
41719;SDS011;27405;53.316;-6.294;2024-01-30T14:15:57;11.13;;;1.80;;
41719;SDS011;27405;53.316;-6.294;2024-01-30T14:18:24;7.68;;;1.70;;
41719;SDS011;27405;53.316;-6.294;2024-01-30T14:20:50;10.80;;;1.80;;